sensor_id;sensor_type;location;lat;lon;timestamp;temperature;humidity
9271;DHT22;4673;53.458;9.940;2023-08-08T00:00:46;12.90;72.00
9271;DHT22;4673;53.458;9.940;2023-08-08T00:03:13;12.90;72.00
9271;DHT22;4673;53.458;9.940;2023-08-08T00:05:38;12.80;72.10
9271;DHT22;4673;53.458;9.940;2023-08-08T00:08:04;12.80;72.40
9271;DHT22;4673;53.458;9.940;2023-08-08T00:10:30;12.80;72.50
9271;DHT22;4673;53.458;9.940;2023-08-08T00:12:55;12.90;72.60
9271;DHT22;4673;53.458;9.940;2023-08-08T00:15:21;12.90;72.90
9271;DHT22;4673;53.458;9.940;2023-08-08T00:17:47;12.80;72.80
9271;DHT22;4673;53.458;9.940;2023-08-08T00:20:13;12.90;72.90
9271;DHT22;4673;53.458;9.940;2023-08-08T00:22:38;12.90;72.90
9271;DHT22;4673;53.458;9.940;2023-08-08T00:25:04;12.90;73.00
9271;DHT22;4673;53.458;9.940;2023-08-08T00:27:30;12.90;73.20
9271;DHT22;4673;53.458;9.940;2023-08-08T00:29:55;12.90;73.40
9271;DHT22;4673;53.458;9.940;2023-08-08T00:32:21;12.90;73.80
9271;DHT22;4673;53.458;9.940;2023-08-08T00:34:46;12.90;74.20
9271;DHT22;4673;53.458;9.940;2023-08-08T00:37:12;12.90;74.30
9271;DHT22;4673;53.458;9.940;2023-08-08T00:39:38;12.70;76.80
9271;DHT22;4673;53.458;9.940;2023-08-08T00:42:04;12.60;81.00
9271;DHT22;4673;53.458;9.940;2023-08-08T00:44:30;12.40;83.30
9271;DHT22;4673;53.458;9.940;2023-08-08T00:46:56;12.30;84.20
9271;DHT22;4673;53.458;9.940;2023-08-08T00:49:21;12.30;85.40
9271;DHT22;4673;53.458;9.940;2023-08-08T00:51:48;12.30;86.50
9271;DHT22;4673;53.458;9.940;2023-08-08T00:54:15;12.30;87.30
9271;DHT22;4673;53.458;9.940;2023-08-08T00:56:41;12.30;88.10
9271;DHT22;4673;53.458;9.940;2023-08-08T00:59:07;12.20;88.40
9271;DHT22;4673;53.458;9.940;2023-08-08T01:01:34;12.10;88.60
9271;DHT22;4673;53.458;9.940;2023-08-08T01:03:59;12.10;89.70
9271;DHT22;4673;53.458;9.940;2023-08-08T01:06:39;12.10;90.00
9271;DHT22;4673;53.458;9.940;2023-08-08T01:09:26;12.10;90.90
9271;DHT22;4673;53.458;9.940;2023-08-08T01:11:53;12.10;91.50
9271;DHT22;4673;53.458;9.940;2023-08-08T01:14:20;12.20;92.00
9271;DHT22;4673;53.458;9.940;2023-08-08T01:16:46;12.10;92.40
9271;DHT22;4673;53.458;9.940;2023-08-08T01:19:17;12.10;92.80
9271;DHT22;4673;53.458;9.940;2023-08-08T01:21:48;12.10;93.40
9271;DHT22;4673;53.458;9.940;2023-08-08T01:24:24;12.10;93.80
9271;DHT22;4673;53.458;9.940;2023-08-08T01:26:55;12.00;93.80
9271;DHT22;4673;53.458;9.940;2023-08-08T01:29:21;12.00;94.20
9271;DHT22;4673;53.458;9.940;2023-08-08T01:31:46;12.00;94.50
9271;DHT22;4673;53.458;9.940;2023-08-08T01:34:12;12.00;94.50
9271;DHT22;4673;53.458;9.940;2023-08-08T01:37:01;12.00;94.70
9271;DHT22;4673;53.458;9.940;2023-08-08T01:39:30;12.00;95.00
9271;DHT22;4673;53.458;9.940;2023-08-08T01:41:56;12.10;95.60
9271;DHT22;4673;53.458;9.940;2023-08-08T01:44:24;12.10;95.70
9271;DHT22;4673;53.458;9.940;2023-08-08T01:46:52;12.10;95.70
9271;DHT22;4673;53.458;9.940;2023-08-08T01:49:17;12.00;95.70
9271;DHT22;4673;53.458;9.940;2023-08-08T01:51:43;11.90;95.60
9271;DHT22;4673;53.458;9.940;2023-08-08T01:54:09;11.90;95.70
9271;DHT22;4673;53.458;9.940;2023-08-08T01:56:34;11.80;95.70
9271;DHT22;4673;53.458;9.940;2023-08-08T01:59:00;11.70;95.60
9271;DHT22;4673;53.458;9.940;2023-08-08T02:01:26;11.60;95.60
9271;DHT22;4673;53.458;9.940;2023-08-08T02:03:51;11.60;95.70
9271;DHT22;4673;53.458;9.940;2023-08-08T02:06:17;11.60;96.00
9271;DHT22;4673;53.458;9.940;2023-08-08T02:08:43;11.50;96.20
9271;DHT22;4673;53.458;9.940;2023-08-08T02:11:08;11.50;96.40
9271;DHT22;4673;53.458;9.940;2023-08-08T02:13:34;11.60;96.70
9271;DHT22;4673;53.458;9.940;2023-08-08T02:15:59;11.70;97.10
9271;DHT22;4673;53.458;9.940;2023-08-08T02:18:25;11.70;97.20
9271;DHT22;4673;53.458;9.940;2023-08-08T02:20:51;11.80;97.30
9271;DHT22;4673;53.458;9.940;2023-08-08T02:23:16;11.80;97.40
9271;DHT22;4673;53.458;9.940;2023-08-08T02:25:42;11.80;97.40
9271;DHT22;4673;53.458;9.940;2023-08-08T02:28:07;11.80;97.40
9271;DHT22;4673;53.458;9.940;2023-08-08T02:30:33;11.90;97.60
9271;DHT22;4673;53.458;9.940;2023-08-08T02:32:59;11.90;97.70
9271;DHT22;4673;53.458;9.940;2023-08-08T02:35:24;11.90;97.70
9271;DHT22;4673;53.458;9.940;2023-08-08T02:37:50;11.90;97.80
9271;DHT22;4673;53.458;9.940;2023-08-08T02:40:16;11.80;97.70
9271;DHT22;4673;53.458;9.940;2023-08-08T02:42:41;11.70;97.50
9271;DHT22;4673;53.458;9.940;2023-08-08T02:45:07;11.70;97.60
9271;DHT22;4673;53.458;9.940;2023-08-08T02:47:33;11.70;97.70
9271;DHT22;4673;53.458;9.940;2023-08-08T02:49:58;11.70;97.70
9271;DHT22;4673;53.458;9.940;2023-08-08T02:52:24;11.70;97.80
9271;DHT22;4673;53.458;9.940;2023-08-08T02:54:50;11.60;97.80
9271;DHT22;4673;53.458;9.940;2023-08-08T02:57:16;11.50;97.80
9271;DHT22;4673;53.458;9.940;2023-08-08T02:59:42;11.50;97.90
9271;DHT22;4673;53.458;9.940;2023-08-08T03:02:07;11.50;98.30
9271;DHT22;4673;53.458;9.940;2023-08-08T03:04:33;11.60;98.50
9271;DHT22;4673;53.458;9.940;2023-08-08T03:06:59;11.60;98.60
9271;DHT22;4673;53.458;9.940;2023-08-08T03:09:27;11.60;98.60
9271;DHT22;4673;53.458;9.940;2023-08-08T03:11:53;11.60;98.70
9271;DHT22;4673;53.458;9.940;2023-08-08T03:14:18;11.60;98.90
9271;DHT22;4673;53.458;9.940;2023-08-08T03:16:44;11.60;99.00
9271;DHT22;4673;53.458;9.940;2023-08-08T03:19:10;11.60;99.30
9271;DHT22;4673;53.458;9.940;2023-08-08T03:21:35;11.60;99.20
9271;DHT22;4673;53.458;9.940;2023-08-08T03:24:01;11.60;99.20
9271;DHT22;4673;53.458;9.940;2023-08-08T03:26:27;11.60;99.20
9271;DHT22;4673;53.458;9.940;2023-08-08T03:28:52;11.60;99.30
9271;DHT22;4673;53.458;9.940;2023-08-08T03:31:19;11.70;99.40
9271;DHT22;4673;53.458;9.940;2023-08-08T03:33:45;11.70;99.50
9271;DHT22;4673;53.458;9.940;2023-08-08T03:36:11;11.80;99.60
9271;DHT22;4673;53.458;9.940;2023-08-08T03:38:36;11.80;99.60
9271;DHT22;4673;53.458;9.940;2023-08-08T03:41:03;11.80;99.40
9271;DHT22;4673;53.458;9.940;2023-08-08T03:43:29;11.90;99.50
9271;DHT22;4673;53.458;9.940;2023-08-08T03:45:55;11.90;99.40
9271;DHT22;4673;53.458;9.940;2023-08-08T03:48:21;11.80;99.20
9271;DHT22;4673;53.458;9.940;2023-08-08T03:50:46;11.90;99.20
9271;DHT22;4673;53.458;9.940;2023-08-08T03:53:12;11.90;99.10
9271;DHT22;4673;53.458;9.940;2023-08-08T03:55:38;11.90;99.00
9271;DHT22;4673;53.458;9.940;2023-08-08T03:58:04;11.90;98.90
9271;DHT22;4673;53.458;9.940;2023-08-08T04:00:31;11.90;98.80
9271;DHT22;4673;53.458;9.940;2023-08-08T04:02:57;11.90;98.80
9271;DHT22;4673;53.458;9.940;2023-08-08T04:05:22;12.00;98.80
9271;DHT22;4673;53.458;9.940;2023-08-08T04:07:48;12.00;98.60
9271;DHT22;4673;53.458;9.940;2023-08-08T04:10:14;12.00;98.40
9271;DHT22;4673;53.458;9.940;2023-08-08T04:12:39;12.00;98.10
9271;DHT22;4673;53.458;9.940;2023-08-08T04:15:05;12.10;98.00
9271;DHT22;4673;53.458;9.940;2023-08-08T04:17:31;12.10;97.90
9271;DHT22;4673;53.458;9.940;2023-08-08T04:19:56;12.10;97.70
9271;DHT22;4673;53.458;9.940;2023-08-08T04:22:22;12.10;97.60
9271;DHT22;4673;53.458;9.940;2023-08-08T04:24:48;12.10;97.40
9271;DHT22;4673;53.458;9.940;2023-08-08T04:27:13;12.10;97.10
9271;DHT22;4673;53.458;9.940;2023-08-08T04:29:39;12.10;96.90
9271;DHT22;4673;53.458;9.940;2023-08-08T04:32:05;12.10;96.70
9271;DHT22;4673;53.458;9.940;2023-08-08T04:34:30;12.00;96.30
9271;DHT22;4673;53.458;9.940;2023-08-08T04:36:56;12.00;96.20
9271;DHT22;4673;53.458;9.940;2023-08-08T04:39:22;12.00;96.20
9271;DHT22;4673;53.458;9.940;2023-08-08T04:41:47;12.00;95.90
9271;DHT22;4673;53.458;9.940;2023-08-08T04:44:13;12.10;96.20
9271;DHT22;4673;53.458;9.940;2023-08-08T04:46:39;12.10;96.10
9271;DHT22;4673;53.458;9.940;2023-08-08T04:49:04;12.20;95.80
9271;DHT22;4673;53.458;9.940;2023-08-08T04:51:30;12.20;95.70
9271;DHT22;4673;53.458;9.940;2023-08-08T04:53:55;12.30;95.60
9271;DHT22;4673;53.458;9.940;2023-08-08T04:56:21;12.40;95.20
9271;DHT22;4673;53.458;9.940;2023-08-08T04:58:47;12.40;94.40
9271;DHT22;4673;53.458;9.940;2023-08-08T05:01:12;12.40;94.10
9271;DHT22;4673;53.458;9.940;2023-08-08T05:03:40;12.50;93.90
9271;DHT22;4673;53.458;9.940;2023-08-08T05:06:06;12.60;93.80
9271;DHT22;4673;53.458;9.940;2023-08-08T05:08:31;12.70;93.40
9271;DHT22;4673;53.458;9.940;2023-08-08T05:10:57;12.80;92.90
9271;DHT22;4673;53.458;9.940;2023-08-08T05:13:23;12.90;91.50
9271;DHT22;4673;53.458;9.940;2023-08-08T05:15:48;13.00;90.20
9271;DHT22;4673;53.458;9.940;2023-08-08T05:18:14;13.20;90.30
9271;DHT22;4673;53.458;9.940;2023-08-08T05:20:39;13.30;89.50
9271;DHT22;4673;53.458;9.940;2023-08-08T05:23:05;13.40;87.50
9271;DHT22;4673;53.458;9.940;2023-08-08T05:25:31;13.50;87.00
9271;DHT22;4673;53.458;9.940;2023-08-08T05:27:56;13.50;85.40
9271;DHT22;4673;53.458;9.940;2023-08-08T05:30:22;13.50;84.40
9271;DHT22;4673;53.458;9.940;2023-08-08T05:32:48;13.40;82.80
9271;DHT22;4673;53.458;9.940;2023-08-08T05:35:14;13.50;83.20
9271;DHT22;4673;53.458;9.940;2023-08-08T05:37:39;13.60;82.80
9271;DHT22;4673;53.458;9.940;2023-08-08T05:40:05;13.80;82.30
9271;DHT22;4673;53.458;9.940;2023-08-08T05:42:32;13.90;81.50
9271;DHT22;4673;53.458;9.940;2023-08-08T05:44:57;13.80;81.00
9271;DHT22;4673;53.458;9.940;2023-08-08T05:47:23;13.90;80.70
9271;DHT22;4673;53.458;9.940;2023-08-08T05:49:49;13.90;80.60
9271;DHT22;4673;53.458;9.940;2023-08-08T05:52:14;14.00;80.50
9271;DHT22;4673;53.458;9.940;2023-08-08T05:54:40;14.20;79.90
9271;DHT22;4673;53.458;9.940;2023-08-08T05:57:06;14.30;79.20
9271;DHT22;4673;53.458;9.940;2023-08-08T05:59:32;14.30;78.40
9271;DHT22;4673;53.458;9.940;2023-08-08T06:01:57;14.20;78.20
9271;DHT22;4673;53.458;9.940;2023-08-08T06:04:24;14.20;78.10
9271;DHT22;4673;53.458;9.940;2023-08-08T06:06:50;14.30;78.60
9271;DHT22;4673;53.458;9.940;2023-08-08T06:09:16;14.50;78.80
9271;DHT22;4673;53.458;9.940;2023-08-08T06:11:42;14.90;78.20
9271;DHT22;4673;53.458;9.940;2023-08-08T06:14:08;15.00;76.00
9271;DHT22;4673;53.458;9.940;2023-08-08T06:16:35;15.00;74.00
9271;DHT22;4673;53.458;9.940;2023-08-08T06:19:00;14.90;72.40
9271;DHT22;4673;53.458;9.940;2023-08-08T06:21:26;14.80;72.30
9271;DHT22;4673;53.458;9.940;2023-08-08T06:23:52;14.80;72.80
9271;DHT22;4673;53.458;9.940;2023-08-08T06:26:21;14.70;72.80
9271;DHT22;4673;53.458;9.940;2023-08-08T06:28:47;14.60;73.00
9271;DHT22;4673;53.458;9.940;2023-08-08T06:31:13;14.50;73.10
9271;DHT22;4673;53.458;9.940;2023-08-08T06:33:39;14.40;72.80
9271;DHT22;4673;53.458;9.940;2023-08-08T06:36:05;14.50;73.50
9271;DHT22;4673;53.458;9.940;2023-08-08T06:38:31;14.70;73.70
9271;DHT22;4673;53.458;9.940;2023-08-08T06:41:00;14.90;72.80
9271;DHT22;4673;53.458;9.940;2023-08-08T06:43:26;15.10;71.80
9271;DHT22;4673;53.458;9.940;2023-08-08T06:45:52;15.20;70.90
9271;DHT22;4673;53.458;9.940;2023-08-08T06:48:17;15.20;70.30
9271;DHT22;4673;53.458;9.940;2023-08-08T06:50:43;15.00;70.10
9271;DHT22;4673;53.458;9.940;2023-08-08T06:53:08;14.90;69.00
9271;DHT22;4673;53.458;9.940;2023-08-08T06:55:34;14.90;69.80
9271;DHT22;4673;53.458;9.940;2023-08-08T06:58:00;14.90;69.90
9271;DHT22;4673;53.458;9.940;2023-08-08T07:00:25;15.00;70.30
9271;DHT22;4673;53.458;9.940;2023-08-08T07:02:52;15.10;70.10
9271;DHT22;4673;53.458;9.940;2023-08-08T07:05:18;15.20;69.60
9271;DHT22;4673;53.458;9.940;2023-08-08T07:07:44;15.30;69.80
9271;DHT22;4673;53.458;9.940;2023-08-08T07:10:10;15.40;69.50
9271;DHT22;4673;53.458;9.940;2023-08-08T07:12:37;15.50;68.10
9271;DHT22;4673;53.458;9.940;2023-08-08T07:15:04;15.50;67.70
9271;DHT22;4673;53.458;9.940;2023-08-08T07:17:30;15.60;67.10
9271;DHT22;4673;53.458;9.940;2023-08-08T07:19:55;15.70;66.70
9271;DHT22;4673;53.458;9.940;2023-08-08T07:22:22;15.80;65.40
9271;DHT22;4673;53.458;9.940;2023-08-08T07:24:47;16.10;64.40
9271;DHT22;4673;53.458;9.940;2023-08-08T07:27:13;16.40;63.00
9271;DHT22;4673;53.458;9.940;2023-08-08T07:29:39;16.70;62.00
9271;DHT22;4673;53.458;9.940;2023-08-08T07:32:04;16.80;60.30
9271;DHT22;4673;53.458;9.940;2023-08-08T07:34:31;16.60;58.60
9271;DHT22;4673;53.458;9.940;2023-08-08T07:36:58;16.50;59.30
9271;DHT22;4673;53.458;9.940;2023-08-08T07:39:23;16.50;60.40
9271;DHT22;4673;53.458;9.940;2023-08-08T07:41:49;16.40;59.70
9271;DHT22;4673;53.458;9.940;2023-08-08T07:44:15;16.40;60.20
9271;DHT22;4673;53.458;9.940;2023-08-08T07:46:41;16.40;60.70
9271;DHT22;4673;53.458;9.940;2023-08-08T07:49:06;16.70;61.00
9271;DHT22;4673;53.458;9.940;2023-08-08T07:51:32;16.90;59.90
9271;DHT22;4673;53.458;9.940;2023-08-08T07:53:58;17.40;59.40
9271;DHT22;4673;53.458;9.940;2023-08-08T07:56:24;17.70;57.80
9271;DHT22;4673;53.458;9.940;2023-08-08T07:58:50;17.90;57.00
9271;DHT22;4673;53.458;9.940;2023-08-08T08:01:15;18.00;54.90
9271;DHT22;4673;53.458;9.940;2023-08-08T08:03:42;18.00;55.20
9271;DHT22;4673;53.458;9.940;2023-08-08T08:06:07;18.00;54.50
9271;DHT22;4673;53.458;9.940;2023-08-08T08:08:33;18.00;53.60
9271;DHT22;4673;53.458;9.940;2023-08-08T08:11:01;17.90;54.70
9271;DHT22;4673;53.458;9.940;2023-08-08T08:13:27;17.90;54.50
9271;DHT22;4673;53.458;9.940;2023-08-08T08:15:52;17.70;55.30
9271;DHT22;4673;53.458;9.940;2023-08-08T08:18:18;17.60;54.40
9271;DHT22;4673;53.458;9.940;2023-08-08T08:20:45;17.50;55.40
9271;DHT22;4673;53.458;9.940;2023-08-08T08:23:11;17.50;55.40
9271;DHT22;4673;53.458;9.940;2023-08-08T08:25:37;17.40;55.10
9271;DHT22;4673;53.458;9.940;2023-08-08T08:28:03;17.20;55.70
9271;DHT22;4673;53.458;9.940;2023-08-08T08:30:28;17.20;56.40
9271;DHT22;4673;53.458;9.940;2023-08-08T08:32:54;17.20;56.10
9271;DHT22;4673;53.458;9.940;2023-08-08T08:35:20;17.10;55.90
9271;DHT22;4673;53.458;9.940;2023-08-08T08:37:46;17.00;56.10
9271;DHT22;4673;53.458;9.940;2023-08-08T08:40:11;17.10;56.00
9271;DHT22;4673;53.458;9.940;2023-08-08T08:42:39;17.00;56.00
9271;DHT22;4673;53.458;9.940;2023-08-08T08:45:06;17.10;56.10
9271;DHT22;4673;53.458;9.940;2023-08-08T08:47:36;17.20;55.60
9271;DHT22;4673;53.458;9.940;2023-08-08T08:50:02;17.50;53.80
9271;DHT22;4673;53.458;9.940;2023-08-08T08:52:29;17.60;52.20
9271;DHT22;4673;53.458;9.940;2023-08-08T08:54:55;17.70;51.80
9271;DHT22;4673;53.458;9.940;2023-08-08T08:57:21;17.70;50.10
9271;DHT22;4673;53.458;9.940;2023-08-08T08:59:49;17.80;50.00
9271;DHT22;4673;53.458;9.940;2023-08-08T09:02:15;17.70;49.20
9271;DHT22;4673;53.458;9.940;2023-08-08T09:04:41;17.80;49.50
9271;DHT22;4673;53.458;9.940;2023-08-08T09:07:07;18.00;49.50
9271;DHT22;4673;53.458;9.940;2023-08-08T09:09:33;18.20;47.60
9271;DHT22;4673;53.458;9.940;2023-08-08T09:12:00;18.30;46.90
9271;DHT22;4673;53.458;9.940;2023-08-08T09:14:27;18.50;45.00
9271;DHT22;4673;53.458;9.940;2023-08-08T09:16:53;18.60;43.30
9271;DHT22;4673;53.458;9.940;2023-08-08T09:19:20;18.60;42.50
9271;DHT22;4673;53.458;9.940;2023-08-08T09:21:47;18.40;42.80
9271;DHT22;4673;53.458;9.940;2023-08-08T09:24:13;18.40;42.80
9271;DHT22;4673;53.458;9.940;2023-08-08T09:26:39;18.20;42.60
9271;DHT22;4673;53.458;9.940;2023-08-08T09:29:05;17.90;44.20
9271;DHT22;4673;53.458;9.940;2023-08-08T09:31:31;17.60;45.00
9271;DHT22;4673;53.458;9.940;2023-08-08T09:34:01;17.50;48.00
9271;DHT22;4673;53.458;9.940;2023-08-08T09:36:27;17.20;48.30
9271;DHT22;4673;53.458;9.940;2023-08-08T09:38:53;17.10;49.10
9271;DHT22;4673;53.458;9.940;2023-08-08T09:41:20;17.20;51.10
9271;DHT22;4673;53.458;9.940;2023-08-08T09:43:47;17.50;50.10
9271;DHT22;4673;53.458;9.940;2023-08-08T09:46:13;17.80;49.50
9271;DHT22;4673;53.458;9.940;2023-08-08T09:48:41;17.60;48.10
9271;DHT22;4673;53.458;9.940;2023-08-08T09:51:08;17.50;46.80
9271;DHT22;4673;53.458;9.940;2023-08-08T09:53:34;17.30;47.10
9271;DHT22;4673;53.458;9.940;2023-08-08T09:56:02;17.00;49.20
9271;DHT22;4673;53.458;9.940;2023-08-08T09:58:28;16.90;51.10
9271;DHT22;4673;53.458;9.940;2023-08-08T10:00:54;16.90;52.50
9271;DHT22;4673;53.458;9.940;2023-08-08T10:03:19;17.00;52.70
9271;DHT22;4673;53.458;9.940;2023-08-08T10:05:46;17.10;52.00
9271;DHT22;4673;53.458;9.940;2023-08-08T10:08:15;17.10;53.20
9271;DHT22;4673;53.458;9.940;2023-08-08T10:10:42;17.00;52.50
9271;DHT22;4673;53.458;9.940;2023-08-08T10:13:08;16.90;52.80
9271;DHT22;4673;53.458;9.940;2023-08-08T10:15:37;16.70;53.00
9271;DHT22;4673;53.458;9.940;2023-08-08T10:18:03;16.50;54.70
9271;DHT22;4673;53.458;9.940;2023-08-08T10:20:31;16.30;57.70
9271;DHT22;4673;53.458;9.940;2023-08-08T10:22:59;16.10;58.50
9271;DHT22;4673;53.458;9.940;2023-08-08T10:25:30;16.00;60.20
9271;DHT22;4673;53.458;9.940;2023-08-08T10:28:08;16.00;60.90
9271;DHT22;4673;53.458;9.940;2023-08-08T10:30:45;16.00;61.20
9271;DHT22;4673;53.458;9.940;2023-08-08T10:33:22;15.90;61.80
9271;DHT22;4673;53.458;9.940;2023-08-08T10:36:07;16.00;62.30
9271;DHT22;4673;53.458;9.940;2023-08-08T10:38:46;16.20;62.00
9271;DHT22;4673;53.458;9.940;2023-08-08T10:41:19;16.50;61.70
9271;DHT22;4673;53.458;9.940;2023-08-08T10:43:54;16.90;60.90
9271;DHT22;4673;53.458;9.940;2023-08-08T10:46:41;17.30;58.20
9271;DHT22;4673;53.458;9.940;2023-08-08T10:49:07;17.60;55.00
9271;DHT22;4673;53.458;9.940;2023-08-08T10:51:43;17.70;54.40
9271;DHT22;4673;53.458;9.940;2023-08-08T10:54:16;17.50;53.70
9271;DHT22;4673;53.458;9.940;2023-08-08T10:56:52;17.20;55.50
9271;DHT22;4673;53.458;9.940;2023-08-08T10:59:25;17.30;56.80
9271;DHT22;4673;53.458;9.940;2023-08-08T11:01:52;17.50;56.50
9271;DHT22;4673;53.458;9.940;2023-08-08T11:04:22;17.60;56.60
9271;DHT22;4673;53.458;9.940;2023-08-08T11:06:49;17.30;54.50
9271;DHT22;4673;53.458;9.940;2023-08-08T11:09:16;16.90;55.90
9271;DHT22;4673;53.458;9.940;2023-08-08T11:11:43;16.10;57.60
9271;DHT22;4673;53.458;9.940;2023-08-08T11:14:20;15.70;62.20
9271;DHT22;4673;53.458;9.940;2023-08-08T11:16:47;15.50;66.20
9271;DHT22;4673;53.458;9.940;2023-08-08T11:19:14;15.30;68.30
9271;DHT22;4673;53.458;9.940;2023-08-08T11:21:43;15.30;70.90
9271;DHT22;4673;53.458;9.940;2023-08-08T11:24:09;15.10;72.20
9271;DHT22;4673;53.458;9.940;2023-08-08T11:26:36;14.90;72.70
9271;DHT22;4673;53.458;9.940;2023-08-08T11:29:03;14.90;75.00
9271;DHT22;4673;53.458;9.940;2023-08-08T11:31:29;14.70;74.50
9271;DHT22;4673;53.458;9.940;2023-08-08T11:33:56;14.60;75.80
9271;DHT22;4673;53.458;9.940;2023-08-08T11:36:32;14.30;76.50
9271;DHT22;4673;53.458;9.940;2023-08-08T11:39:00;14.10;78.00
9271;DHT22;4673;53.458;9.940;2023-08-08T11:41:28;14.00;78.70
9271;DHT22;4673;53.458;9.940;2023-08-08T11:43:55;13.90;80.10
9271;DHT22;4673;53.458;9.940;2023-08-08T11:46:24;13.90;81.70
9271;DHT22;4673;53.458;9.940;2023-08-08T11:48:50;13.70;82.00
9271;DHT22;4673;53.458;9.940;2023-08-08T11:51:16;13.60;83.10
9271;DHT22;4673;53.458;9.940;2023-08-08T11:53:50;13.50;84.10
9271;DHT22;4673;53.458;9.940;2023-08-08T11:56:20;13.60;85.70
9271;DHT22;4673;53.458;9.940;2023-08-08T11:58:49;13.90;87.50
9271;DHT22;4673;53.458;9.940;2023-08-08T12:01:14;14.50;89.80
9271;DHT22;4673;53.458;9.940;2023-08-08T12:03:40;15.10;90.70
9271;DHT22;4673;53.458;9.940;2023-08-08T12:06:13;15.50;88.70
9271;DHT22;4673;53.458;9.940;2023-08-08T12:08:41;15.60;85.10
9271;DHT22;4673;53.458;9.940;2023-08-08T12:11:09;15.50;83.20
9271;DHT22;4673;53.458;9.940;2023-08-08T12:13:37;15.30;81.80
9271;DHT22;4673;53.458;9.940;2023-08-08T12:16:05;15.30;83.10
9271;DHT22;4673;53.458;9.940;2023-08-08T12:18:32;15.30;82.00
9271;DHT22;4673;53.458;9.940;2023-08-08T12:20:58;15.30;82.80
9271;DHT22;4673;53.458;9.940;2023-08-08T12:23:26;15.30;82.40
9271;DHT22;4673;53.458;9.940;2023-08-08T12:25:52;15.30;81.70
9271;DHT22;4673;53.458;9.940;2023-08-08T12:28:18;15.30;81.40
9271;DHT22;4673;53.458;9.940;2023-08-08T12:30:44;15.10;80.20
9271;DHT22;4673;53.458;9.940;2023-08-08T12:33:10;15.00;80.40
9271;DHT22;4673;53.458;9.940;2023-08-08T12:35:35;14.90;81.00
9271;DHT22;4673;53.458;9.940;2023-08-08T12:38:01;14.90;81.80
9271;DHT22;4673;53.458;9.940;2023-08-08T12:40:28;14.90;83.00
9271;DHT22;4673;53.458;9.940;2023-08-08T12:42:54;15.20;85.10
9271;DHT22;4673;53.458;9.940;2023-08-08T12:45:19;15.30;85.40
9271;DHT22;4673;53.458;9.940;2023-08-08T12:47:45;15.40;85.20
9271;DHT22;4673;53.458;9.940;2023-08-08T12:50:10;15.50;84.30
9271;DHT22;4673;53.458;9.940;2023-08-08T12:52:36;15.50;83.40
9271;DHT22;4673;53.458;9.940;2023-08-08T12:55:04;15.80;83.90
9271;DHT22;4673;53.458;9.940;2023-08-08T12:57:30;16.00;83.90
9271;DHT22;4673;53.458;9.940;2023-08-08T12:59:55;16.20;82.90
9271;DHT22;4673;53.458;9.940;2023-08-08T13:02:21;16.50;82.90
9271;DHT22;4673;53.458;9.940;2023-08-08T13:04:47;16.70;80.90
9271;DHT22;4673;53.458;9.940;2023-08-08T13:07:12;17.10;79.30
9271;DHT22;4673;53.458;9.940;2023-08-08T13:09:38;17.30;75.50
9271;DHT22;4673;53.458;9.940;2023-08-08T13:12:04;17.40;73.50
9271;DHT22;4673;53.458;9.940;2023-08-08T13:14:30;17.60;71.60
9271;DHT22;4673;53.458;9.940;2023-08-08T13:16:56;17.50;71.40
9271;DHT22;4673;53.458;9.940;2023-08-08T13:19:22;17.50;71.80
9271;DHT22;4673;53.458;9.940;2023-08-08T13:21:51;17.50;72.20
9271;DHT22;4673;53.458;9.940;2023-08-08T13:24:17;17.30;71.40
9271;DHT22;4673;53.458;9.940;2023-08-08T13:26:43;16.90;72.50
9271;DHT22;4673;53.458;9.940;2023-08-08T13:29:09;16.80;74.50
9271;DHT22;4673;53.458;9.940;2023-08-08T13:31:34;16.70;73.80
9271;DHT22;4673;53.458;9.940;2023-08-08T13:34:00;16.40;73.00
9271;DHT22;4673;53.458;9.940;2023-08-08T13:36:26;16.00;72.00
9271;DHT22;4673;53.458;9.940;2023-08-08T13:38:55;15.90;73.90
9271;DHT22;4673;53.458;9.940;2023-08-08T13:41:20;15.70;74.60
9271;DHT22;4673;53.458;9.940;2023-08-08T13:43:46;15.70;75.70
9271;DHT22;4673;53.458;9.940;2023-08-08T13:46:11;15.70;76.40
9271;DHT22;4673;53.458;9.940;2023-08-08T13:48:37;16.10;77.60
9271;DHT22;4673;53.458;9.940;2023-08-08T13:51:03;16.60;77.20
9271;DHT22;4673;53.458;9.940;2023-08-08T13:53:29;17.00;75.80
9271;DHT22;4673;53.458;9.940;2023-08-08T13:55:55;17.30;70.10
9271;DHT22;4673;53.458;9.940;2023-08-08T13:58:21;17.20;67.00
9271;DHT22;4673;53.458;9.940;2023-08-08T14:00:51;17.00;68.80
9271;DHT22;4673;53.458;9.940;2023-08-08T14:03:17;16.40;70.00
9271;DHT22;4673;53.458;9.940;2023-08-08T14:05:43;15.60;70.10
9271;DHT22;4673;53.458;9.940;2023-08-08T14:08:09;15.10;72.40
9271;DHT22;4673;53.458;9.940;2023-08-08T14:10:35;14.60;73.90
9271;DHT22;4673;53.458;9.940;2023-08-08T14:13:01;14.10;78.20
9271;DHT22;4673;53.458;9.940;2023-08-08T14:15:27;14.10;82.10
9271;DHT22;4673;53.458;9.940;2023-08-08T14:17:54;14.00;82.30
9271;DHT22;4673;53.458;9.940;2023-08-08T14:20:19;13.80;83.20
9271;DHT22;4673;53.458;9.940;2023-08-08T14:22:45;13.70;83.80
9271;DHT22;4673;53.458;9.940;2023-08-08T14:25:14;13.80;84.60
9271;DHT22;4673;53.458;9.940;2023-08-08T14:27:40;13.90;85.10
9271;DHT22;4673;53.458;9.940;2023-08-08T14:30:06;13.90;85.40
9271;DHT22;4673;53.458;9.940;2023-08-08T14:32:32;13.90;85.50
9271;DHT22;4673;53.458;9.940;2023-08-08T14:34:58;14.00;85.30
9271;DHT22;4673;53.458;9.940;2023-08-08T14:37:25;14.00;85.30
9271;DHT22;4673;53.458;9.940;2023-08-08T14:39:50;14.00;84.90
9271;DHT22;4673;53.458;9.940;2023-08-08T14:42:16;14.10;84.70
9271;DHT22;4673;53.458;9.940;2023-08-08T14:44:42;14.30;85.10
9271;DHT22;4673;53.458;9.940;2023-08-08T14:47:07;14.40;84.60
9271;DHT22;4673;53.458;9.940;2023-08-08T14:49:33;14.60;84.30
9271;DHT22;4673;53.458;9.940;2023-08-08T14:51:59;14.80;83.80
9271;DHT22;4673;53.458;9.940;2023-08-08T14:54:24;14.90;81.20
9271;DHT22;4673;53.458;9.940;2023-08-08T14:56:50;15.00;81.40
9271;DHT22;4673;53.458;9.940;2023-08-08T14:59:16;15.00;80.80
9271;DHT22;4673;53.458;9.940;2023-08-08T15:01:42;15.10;80.60
9271;DHT22;4673;53.458;9.940;2023-08-08T15:04:08;15.30;79.30
9271;DHT22;4673;53.458;9.940;2023-08-08T15:06:36;15.30;78.10
9271;DHT22;4673;53.458;9.940;2023-08-08T15:09:03;15.40;78.10
9271;DHT22;4673;53.458;9.940;2023-08-08T15:11:29;15.50;75.90
9271;DHT22;4673;53.458;9.940;2023-08-08T15:13:55;15.80;77.60
9271;DHT22;4673;53.458;9.940;2023-08-08T15:16:20;16.00;76.30
9271;DHT22;4673;53.458;9.940;2023-08-08T15:18:46;16.10;73.70
9271;DHT22;4673;53.458;9.940;2023-08-08T15:21:12;16.00;70.10
9271;DHT22;4673;53.458;9.940;2023-08-08T15:23:39;15.90;70.50
9271;DHT22;4673;53.458;9.940;2023-08-08T15:26:05;15.80;69.80
9271;DHT22;4673;53.458;9.940;2023-08-08T15:28:30;16.00;70.30
9271;DHT22;4673;53.458;9.940;2023-08-08T15:30:56;16.20;70.10
9271;DHT22;4673;53.458;9.940;2023-08-08T15:33:21;16.50;67.70
9271;DHT22;4673;53.458;9.940;2023-08-08T15:35:48;16.50;66.90
9271;DHT22;4673;53.458;9.940;2023-08-08T15:38:13;16.40;65.60
9271;DHT22;4673;53.458;9.940;2023-08-08T15:40:39;16.30;65.30
9271;DHT22;4673;53.458;9.940;2023-08-08T15:43:05;16.30;65.80
9271;DHT22;4673;53.458;9.940;2023-08-08T15:45:31;15.90;62.40
9271;DHT22;4673;53.458;9.940;2023-08-08T15:47:57;15.70;64.80
9271;DHT22;4673;53.458;9.940;2023-08-08T15:50:23;15.30;63.60
9271;DHT22;4673;53.458;9.940;2023-08-08T15:52:49;15.20;64.60
9271;DHT22;4673;53.458;9.940;2023-08-08T15:55:15;15.10;64.20
9271;DHT22;4673;53.458;9.940;2023-08-08T15:57:40;15.20;65.50